createdAt,value
2022-09-23T00:00:34.210Z,93.74
2022-09-23T00:01:34.309Z,93.74
2022-09-23T00:02:34.287Z,93.74
2022-09-23T00:03:34.289Z,93.54
2022-09-23T00:04:34.164Z,93.80
2022-09-23T00:05:34.151Z,93.84
2022-09-23T00:06:34.142Z,94.05
2022-09-23T00:07:34.151Z,93.90
2022-09-23T00:08:34.150Z,93.90
2022-09-23T00:09:34.132Z,93.80
2022-09-23T00:10:34.117Z,93.80
2022-09-23T00:11:34.098Z,93.90
2022-09-23T00:12:34.076Z,93.59
2022-09-23T00:13:34.087Z,93.70
2022-09-23T00:14:34.404Z,93.70
2022-09-23T00:15:34.052Z,93.80
2022-09-23T00:16:34.466Z,93.90
2022-09-23T00:17:34.059Z,93.59
2022-09-23T00:18:34.018Z,93.29
2022-09-23T00:19:34.035Z,93.29
2022-09-23T00:20:33.996Z,92.77
2022-09-23T00:21:33.992Z,92.57
2022-09-23T00:22:34.012Z,92.46
2022-09-23T00:23:33.971Z,92.42
2022-09-23T00:24:33.985Z,92.32
2022-09-23T00:25:33.991Z,92.21
2022-09-23T00:26:33.941Z,92.21
2022-09-23T00:27:33.935Z,92.63
2022-09-23T00:28:33.911Z,92.63
2022-09-23T00:29:34.000Z,92.52
2022-09-23T00:30:33.914Z,92.42
2022-09-23T00:31:33.883Z,92.52
2022-09-23T00:32:33.873Z,92.52
2022-09-23T00:33:33.870Z,92.52
2022-09-23T00:34:33.875Z,92.52
2022-09-23T00:35:34.029Z,92.21
2022-09-23T00:36:33.823Z,92.38
2022-09-23T00:37:33.831Z,92.38
2022-09-23T00:38:33.811Z,92.17
2022-09-23T00:39:33.824Z,92.07
2022-09-23T00:40:33.815Z,92.07
2022-09-23T00:41:33.780Z,91.76
2022-09-23T00:42:33.752Z,91.76
2022-09-23T00:43:33.774Z,91.66
2022-09-23T00:44:33.757Z,91.55
2022-09-23T00:45:33.766Z,91.45
2022-09-23T00:46:33.811Z,91.51
2022-09-23T00:47:33.723Z,91.31
2022-09-23T00:48:33.706Z,91.20
2022-09-23T00:49:33.709Z,91.10
2022-09-23T00:50:33.676Z,90.89
2022-09-23T00:51:33.707Z,90.80
2022-09-23T00:52:33.674Z,91.20
2022-09-23T00:53:33.675Z,90.69
2022-09-23T00:54:33.651Z,90.80
2022-09-23T00:55:33.628Z,90.69
2022-09-23T00:56:33.620Z,90.69
2022-09-23T00:57:33.608Z,90.48
2022-09-23T00:58:33.622Z,90.48
2022-09-23T00:59:33.617Z,90.28
2022-09-23T01:00:33.565Z,90.59
2022-09-23T01:01:33.649Z,90.69
2022-09-23T01:02:33.644Z,90.48
2022-09-23T01:03:33.549Z,90.59
2022-09-23T01:04:33.743Z,90.38
2022-09-23T01:05:33.517Z,90.28
2022-09-23T01:06:33.493Z,90.28
2022-09-23T01:07:33.511Z,90.08
2022-09-23T01:08:33.489Z,90.08
2022-09-23T01:09:33.507Z,89.97
2022-09-23T01:10:33.479Z,90.08
2022-09-23T01:11:33.465Z,89.56
2022-09-23T01:12:33.444Z,89.52
2022-09-23T01:13:33.439Z,89.36
2022-09-23T01:14:33.434Z,89.42
2022-09-23T01:15:33.430Z,89.01
2022-09-23T01:16:33.462Z,88.90
2022-09-23T01:17:33.415Z,89.21
2022-09-23T01:18:33.388Z,88.80
2022-09-23T01:19:33.474Z,88.80
2022-09-23T01:20:33.376Z,88.80
2022-09-23T01:21:33.343Z,88.70
2022-09-23T01:22:33.346Z,88.70
2022-09-23T01:23:33.340Z,88.59
2022-09-23T01:24:33.322Z,88.39
2022-09-23T01:25:33.331Z,88.39
2022-09-23T01:26:33.307Z,88.49
2022-09-23T01:27:33.286Z,88.49
2022-09-23T01:28:33.331Z,88.29
2022-09-23T01:29:33.458Z,88.29
2022-09-23T01:30:33.311Z,88.39
2022-09-23T01:31:33.261Z,88.39
2022-09-23T01:32:33.230Z,88.08
2022-09-23T01:33:33.220Z,87.98
2022-09-23T01:34:33.221Z,87.88
2022-09-23T01:35:33.226Z,87.88
2022-09-23T01:36:33.227Z,87.77
2022-09-23T01:37:33.175Z,87.67
2022-09-23T01:38:33.196Z,87.88
2022-09-23T01:39:33.173Z,87.67
2022-09-23T01:40:33.250Z,87.37
2022-09-23T01:41:33.153Z,87.46
2022-09-23T01:42:33.141Z,87.57
2022-09-23T01:43:33.106Z,87.57
2022-09-23T01:44:33.120Z,87.26
2022-09-23T01:45:33.082Z,87.26
2022-09-23T01:46:33.087Z,87.46
2022-09-23T01:47:33.083Z,87.37
2022-09-23T01:48:33.117Z,87.16
2022-09-23T01:49:33.056Z,87.46
2022-09-23T01:50:33.049Z,87.46
2022-09-23T01:51:33.039Z,87.46
2022-09-23T01:52:33.029Z,87.37
2022-09-23T01:53:33.041Z,87.26
2022-09-23T01:54:33.000Z,87.05
2022-09-23T01:55:32.992Z,86.95
2022-09-23T01:56:32.998Z,86.95
2022-09-23T01:57:32.963Z,86.85
2022-09-23T01:58:32.971Z,86.95
2022-09-23T01:59:32.947Z,87.16
2022-09-23T02:00:32.947Z,86.85
2022-09-23T02:01:33.261Z,86.65
2022-09-23T02:02:32.955Z,86.44
2022-09-23T02:03:32.899Z,86.85
2022-09-23T02:04:32.893Z,86.71
2022-09-23T02:05:32.899Z,86.33
2022-09-23T02:06:32.880Z,86.81
2022-09-23T02:07:32.877Z,86.85
2022-09-23T02:08:32.855Z,86.71
2022-09-23T02:09:32.829Z,86.54
2022-09-23T02:10:32.825Z,86.50
2022-09-23T02:11:32.818Z,86.75
2022-09-23T02:12:32.826Z,86.65
2022-09-23T02:13:32.794Z,86.65
2022-09-23T02:14:32.788Z,86.75
2022-09-23T02:15:32.763Z,86.54
2022-09-23T02:16:32.819Z,86.65
2022-09-23T02:17:32.769Z,86.65
2022-09-23T02:18:32.740Z,86.44
2022-09-23T02:19:32.733Z,86.65
2022-09-23T02:20:32.728Z,86.54
2022-09-23T02:21:32.705Z,86.13
2022-09-23T02:22:32.719Z,86.13
2022-09-23T02:23:32.693Z,86.03
2022-09-23T02:24:32.687Z,86.13
2022-09-23T02:25:32.652Z,85.93
2022-09-23T02:26:32.661Z,85.93
2022-09-23T02:27:32.643Z,86.03
2022-09-23T02:28:32.656Z,86.24
2022-09-23T02:29:32.615Z,85.93
2022-09-23T02:30:32.615Z,86.44
2022-09-23T02:31:32.642Z,86.33
2022-09-23T02:32:32.594Z,86.13
2022-09-23T02:33:32.610Z,86.13
2022-09-23T02:34:32.574Z,86.13
2022-09-23T02:35:32.551Z,86.13
2022-09-23T02:36:32.597Z,86.13
2022-09-23T02:37:32.540Z,86.13
2022-09-23T02:38:32.533Z,86.85
2022-09-23T02:39:32.513Z,86.75
2022-09-23T02:40:32.556Z,86.95
2022-09-23T02:41:32.503Z,86.65
2022-09-23T02:42:32.520Z,86.33
2022-09-23T02:43:32.471Z,86.33
2022-09-23T02:44:32.571Z,86.65
2022-09-23T02:45:32.481Z,86.54
2022-09-23T02:46:32.443Z,86.33
2022-09-23T02:47:32.435Z,86.44
2022-09-23T02:48:32.449Z,86.33
2022-09-23T02:49:32.481Z,86.03
2022-09-23T02:50:32.431Z,86.03
2022-09-23T02:51:32.383Z,86.44
2022-09-23T02:52:32.406Z,86.75
2022-09-23T02:53:32.368Z,86.44
2022-09-23T02:54:32.357Z,86.24
2022-09-23T02:55:32.391Z,86.13
2022-09-23T02:56:32.357Z,86.24
2022-09-23T02:57:32.330Z,86.33
2022-09-23T02:58:32.318Z,86.44
2022-09-23T02:59:32.309Z,86.68
2022-09-23T03:00:32.300Z,86.38
2022-09-23T03:01:32.340Z,86.79
2022-09-23T03:02:32.374Z,86.89
2022-09-23T03:03:32.294Z,86.99
2022-09-23T03:04:32.387Z,86.99
2022-09-23T03:05:32.232Z,86.79
2022-09-23T03:06:32.235Z,86.58
2022-09-23T03:07:32.209Z,86.79
2022-09-23T03:08:32.211Z,86.89
2022-09-23T03:09:32.185Z,86.89
2022-09-23T03:10:32.208Z,86.99
2022-09-23T03:11:32.195Z,86.79
2022-09-23T03:12:32.171Z,86.58
2022-09-23T03:13:32.147Z,86.58
2022-09-23T03:14:32.147Z,86.38
2022-09-23T03:15:32.132Z,86.58
2022-09-23T03:16:32.196Z,86.58
2022-09-23T03:17:32.094Z,86.58
2022-09-23T03:18:32.090Z,86.27
2022-09-23T03:19:32.094Z,86.58
2022-09-23T03:20:32.088Z,86.58
2022-09-23T03:21:32.085Z,86.58
2022-09-23T03:22:32.063Z,86.58
2022-09-23T03:23:32.038Z,86.89
2022-09-23T03:24:32.047Z,86.79
2022-09-23T03:25:32.034Z,86.58
2022-09-23T03:26:32.020Z,86.79
2022-09-23T03:27:32.006Z,86.79
2022-09-23T03:28:32.004Z,86.89
2022-09-23T03:29:31.978Z,86.48
2022-09-23T03:30:31.990Z,86.79
2022-09-23T03:31:32.026Z,86.79
2022-09-23T03:32:31.958Z,86.79
2022-09-23T03:33:31.938Z,86.68
2022-09-23T03:34:31.941Z,86.93
2022-09-23T03:35:31.926Z,87.04
2022-09-23T03:36:31.920Z,87.13
2022-09-23T03:37:31.892Z,87.13
2022-09-23T03:38:31.886Z,87.04
2022-09-23T03:39:31.884Z,87.34
2022-09-23T03:40:31.920Z,87.34
2022-09-23T03:41:31.859Z,87.34
2022-09-23T03:42:31.851Z,87.13
2022-09-23T03:43:35.228Z,87.45
2022-09-23T03:44:31.836Z,87.34
2022-09-23T03:45:31.830Z,87.13
2022-09-23T03:46:31.798Z,87.34
2022-09-23T03:47:31.794Z,87.49
2022-09-23T03:48:31.782Z,87.59
2022-09-23T03:49:31.764Z,87.69
2022-09-23T03:50:32.220Z,87.59
2022-09-23T03:51:31.738Z,87.79
2022-09-23T03:52:31.793Z,87.69
2022-09-23T03:53:31.719Z,87.49
2022-09-23T03:54:31.714Z,87.69
2022-09-23T03:55:31.713Z,87.49
2022-09-23T03:56:31.691Z,87.79
2022-09-23T03:58:42.079Z,87.79
2022-09-23T03:59:43.034Z,88.10
2022-09-23T04:00:43.114Z,88.14
2022-09-23T04:01:43.087Z,88.14
2022-09-23T04:02:43.014Z,88.14
2022-09-23T04:03:42.991Z,88.24
2022-09-23T04:04:43.000Z,88.45
2022-09-23T04:05:42.978Z,88.56
2022-09-23T04:06:42.980Z,88.66
2022-09-23T04:07:42.980Z,88.96
2022-09-23T04:08:43.005Z,89.07
2022-09-23T04:09:42.929Z,89.22
2022-09-23T04:10:42.933Z,89.83
2022-09-23T04:11:42.928Z,89.73
2022-09-23T04:12:42.900Z,89.83
2022-09-23T04:13:42.888Z,90.03
2022-09-23T04:14:42.878Z,90.55
2022-09-23T04:15:42.869Z,90.45
2022-09-23T04:16:42.918Z,90.28
2022-09-23T04:17:42.873Z,90.28
2022-09-23T04:18:42.842Z,89.87
2022-09-23T04:19:42.827Z,90.18
2022-09-23T04:20:42.819Z,90.39
2022-09-23T04:21:42.797Z,90.18
2022-09-23T04:22:42.845Z,90.28
2022-09-23T04:23:42.803Z,90.39
2022-09-23T04:24:42.786Z,90.39
2022-09-23T04:25:42.764Z,90.39
2022-09-23T04:26:42.769Z,90.49
2022-09-23T04:27:42.744Z,91.11
2022-09-23T04:28:42.921Z,90.90
2022-09-23T04:29:42.718Z,91.25
2022-09-23T04:30:42.719Z,91.66
2022-09-23T04:31:42.723Z,91.56
2022-09-23T04:32:43.309Z,91.46
2022-09-23T04:33:42.667Z,91.77
2022-09-23T04:34:42.701Z,91.97
2022-09-23T04:35:42.652Z,91.56
2022-09-23T04:36:42.653Z,91.56
2022-09-23T04:37:42.654Z,91.97
2022-09-23T04:38:42.637Z,91.77
2022-09-23T04:39:42.637Z,92.08
2022-09-23T04:40:42.702Z,92.29
2022-09-23T04:41:42.588Z,92.33
2022-09-23T04:42:42.587Z,92.53
2022-09-23T04:43:42.572Z,92.63
2022-09-23T04:44:42.657Z,92.94
2022-09-23T04:45:42.599Z,92.74
2022-09-23T04:46:42.622Z,92.84
2022-09-23T04:47:42.528Z,92.74
2022-09-23T04:48:42.489Z,92.94
2022-09-23T04:49:42.510Z,92.84
2022-09-23T04:50:42.500Z,92.84
2022-09-23T04:51:42.507Z,92.63
2022-09-23T04:52:42.489Z,92.53
2022-09-23T04:53:42.465Z,92.33
2022-09-23T04:54:42.450Z,92.33
2022-09-23T04:55:42.449Z,92.53
2022-09-23T04:56:42.417Z,92.74
2022-09-23T04:57:42.369Z,93.05
2022-09-23T04:58:42.363Z,93.46
2022-09-23T04:59:42.358Z,93.46
2022-09-23T05:00:42.373Z,93.77
2022-09-23T05:01:42.488Z,93.66
2022-09-23T05:02:42.330Z,93.71
2022-09-23T05:03:42.356Z,93.91
2022-09-23T05:04:42.307Z,94.02
2022-09-23T05:05:42.298Z,94.43
2022-09-23T05:06:42.294Z,94.43
2022-09-23T05:07:42.414Z,94.43
2022-09-23T05:08:42.268Z,94.43
2022-09-23T05:09:42.246Z,94.32
2022-09-23T05:10:42.244Z,94.32
2022-09-23T05:11:42.259Z,94.53
2022-09-23T05:12:42.238Z,94.64
2022-09-23T05:13:42.206Z,94.64
2022-09-23T05:14:42.199Z,94.89
2022-09-23T05:15:42.187Z,95.09
2022-09-23T05:16:42.274Z,95.09
2022-09-23T05:17:42.196Z,95.30
2022-09-23T05:18:42.174Z,95.30
2022-09-23T05:19:42.140Z,95.61
2022-09-23T05:20:42.145Z,95.40
2022-09-23T05:21:42.158Z,95.50
2022-09-23T05:22:42.153Z,95.40
2022-09-23T05:23:42.125Z,95.30
2022-09-23T05:24:42.120Z,95.50
2022-09-23T05:25:42.107Z,95.15
2022-09-23T05:26:42.138Z,95.05
2022-09-23T05:27:42.053Z,94.95
2022-09-23T05:28:42.097Z,94.74
2022-09-23T05:29:42.034Z,94.84
2022-09-23T05:30:42.040Z,94.74
2022-09-23T05:31:42.089Z,94.84
2022-09-23T05:32:42.024Z,94.95
2022-09-23T05:33:42.067Z,94.74
2022-09-23T05:34:42.010Z,94.64
2022-09-23T05:35:41.988Z,94.32
2022-09-23T05:36:41.972Z,94.28
2022-09-23T05:37:41.956Z,93.98
2022-09-23T05:38:41.951Z,94.08
2022-09-23T05:39:41.945Z,93.87
2022-09-23T05:40:42.043Z,93.98
2022-09-23T05:41:41.910Z,94.08
2022-09-23T05:42:41.927Z,94.18
2022-09-23T05:43:41.895Z,94.28
2022-09-23T05:44:41.919Z,94.38
2022-09-23T05:45:41.899Z,94.49
2022-09-23T05:46:41.953Z,94.28
2022-09-23T05:47:41.883Z,94.49
2022-09-23T05:48:41.897Z,94.80
2022-09-23T05:49:58.476Z,94.80
2022-09-23T05:50:41.854Z,94.74
2022-09-23T05:51:41.875Z,95.10
2022-09-23T05:52:41.889Z,94.90
2022-09-23T05:53:41.814Z,94.64
2022-09-23T05:54:41.828Z,94.64
2022-09-23T05:55:41.771Z,94.43
2022-09-23T05:56:41.787Z,94.53
2022-09-23T05:57:41.748Z,94.84
2022-09-23T05:58:41.770Z,95.05
2022-09-23T05:59:41.727Z,94.95
2022-09-23T06:00:41.731Z,94.74
2022-09-23T06:01:41.896Z,94.43
2022-09-23T06:02:41.806Z,94.43
2022-09-23T06:03:41.686Z,94.74
2022-09-23T06:04:41.700Z,94.95
2022-09-23T06:05:41.663Z,95.05
2022-09-23T06:06:41.664Z,95.05
2022-09-23T06:07:41.666Z,94.70
2022-09-23T06:08:41.654Z,94.59
2022-09-23T06:09:41.624Z,94.59
2022-09-23T06:10:41.621Z,94.90
2022-09-23T06:11:41.605Z,95.00
2022-09-23T06:12:41.597Z,94.59
2022-09-23T06:13:41.599Z,94.18
2022-09-23T06:14:41.614Z,94.28
2022-09-23T06:15:41.640Z,94.28
2022-09-23T06:16:41.563Z,94.59
2022-09-23T06:17:41.535Z,94.08
2022-09-23T06:18:41.541Z,93.83
2022-09-23T06:19:41.536Z,93.62
2022-09-23T06:20:41.526Z,93.83
2022-09-23T06:21:41.495Z,94.24
2022-09-23T06:22:41.522Z,94.45
2022-09-23T06:23:42.126Z,94.24
2022-09-23T06:24:41.513Z,93.88
2022-09-23T06:25:41.522Z,93.88
2022-09-23T06:26:41.461Z,93.99
2022-09-23T06:27:41.435Z,93.58
2022-09-23T06:28:41.440Z,93.27
2022-09-23T06:29:41.446Z,93.27
2022-09-23T06:30:41.415Z,93.12
2022-09-23T06:31:41.487Z,93.12
2022-09-23T06:32:41.400Z,93.54
2022-09-23T06:33:41.383Z,93.12
2022-09-23T06:34:51.123Z,92.77
2022-09-23T06:35:43.818Z,92.46
2022-09-23T06:36:44.529Z,92.11
2022-09-23T06:37:41.337Z,91.80
2022-09-23T06:38:41.326Z,91.19
2022-09-23T06:39:41.319Z,90.73
2022-09-23T06:40:41.409Z,91.04
2022-09-23T06:41:41.283Z,90.42
2022-09-23T06:42:41.293Z,90.08
2022-09-23T06:43:41.269Z,90.08
2022-09-23T06:44:41.262Z,89.52
2022-09-23T06:45:41.247Z,89.01
2022-09-23T06:46:41.339Z,88.90
2022-09-23T06:47:41.227Z,89.17
2022-09-23T06:48:45.945Z,88.45
2022-09-23T06:49:41.204Z,88.72
2022-09-23T06:50:41.213Z,87.49
2022-09-23T06:51:41.235Z,86.98
2022-09-23T06:52:41.173Z,86.32
2022-09-23T06:53:41.171Z,85.05
2022-09-23T06:54:41.170Z,84.33
2022-09-23T06:55:41.148Z,83.47
2022-09-23T06:56:41.130Z,82.92
2022-09-23T06:57:41.150Z,81.79
2022-09-23T06:58:41.117Z,81.15
2022-09-23T06:59:41.111Z,80.80
2022-09-23T07:00:41.100Z,80.39
2022-09-23T07:01:41.241Z,79.84
2022-09-23T07:02:41.220Z,79.94
2022-09-23T07:03:41.067Z,79.09
2022-09-23T07:04:41.085Z,78.07
2022-09-23T07:05:41.128Z,78.27
2022-09-23T07:06:41.022Z,78.13
2022-09-23T07:07:41.052Z,78.03
2022-09-23T07:08:41.006Z,77.59
2022-09-23T07:09:41.055Z,78.00
2022-09-23T07:10:41.020Z,77.65
2022-09-23T07:11:40.984Z,75.51
2022-09-23T07:12:41.011Z,75.92
2022-09-23T07:13:41.005Z,76.19
2022-09-23T07:14:40.963Z,74.96
2022-09-23T07:15:41.004Z,72.58
2022-09-23T07:16:40.920Z,72.17
2022-09-23T07:17:40.927Z,72.34
2022-09-23T07:18:40.901Z,72.45
2022-09-23T07:19:40.926Z,71.53
2022-09-23T07:20:40.891Z,70.89
2022-09-23T07:21:40.885Z,70.58
2022-09-23T07:22:40.863Z,70.95
2022-09-23T07:23:40.861Z,70.14
2022-09-23T07:24:40.849Z,69.63
2022-09-23T07:25:40.929Z,70.92
2022-09-23T07:26:45.480Z,72.11
2022-09-23T07:27:40.885Z,69.26
2022-09-23T07:28:40.809Z,68.44
2022-09-23T07:29:47.795Z,68.32
2022-09-23T07:30:50.822Z,66.99
2022-09-23T07:31:40.906Z,67.10
2022-09-23T07:32:48.262Z,69.30
2022-09-23T07:33:40.817Z,67.16
2022-09-23T07:34:40.743Z,67.27
2022-09-23T07:35:40.731Z,67.36
2022-09-23T07:36:41.048Z,66.76
2022-09-23T07:37:40.716Z,66.32
2022-09-23T07:38:45.277Z,67.74
2022-09-23T07:39:40.689Z,68.12
2022-09-23T07:40:40.695Z,66.29
2022-09-23T07:41:40.703Z,65.99
2022-09-23T07:42:40.655Z,64.76
2022-09-23T07:43:40.638Z,64.36
2022-09-23T07:44:40.627Z,65.88
2022-09-23T07:45:40.632Z,66.19
2022-09-23T07:46:40.659Z,65.91
2022-09-23T07:47:40.688Z,64.76
2022-09-23T07:48:40.616Z,65.58
2022-09-23T07:49:40.614Z,64.87
2022-09-23T07:50:40.570Z,64.67
2022-09-23T07:51:40.591Z,65.17
2022-09-23T07:52:40.571Z,66.19
2022-09-23T07:53:40.545Z,66.60
2022-09-23T07:54:40.518Z,64.90
2022-09-23T07:55:40.569Z,65.20
2022-09-23T07:56:40.511Z,65.41
2022-09-23T07:57:40.540Z,66.83
2022-09-23T07:58:40.531Z,66.52
2022-09-23T07:59:40.480Z,65.41
2022-09-23T08:00:40.464Z,66.39
2022-09-23T08:01:40.521Z,64.79
2022-09-23T08:02:40.494Z,65.78
2022-09-23T08:03:40.492Z,66.60
2022-09-23T08:04:40.482Z,66.90
2022-09-23T08:05:40.422Z,65.75
2022-09-23T08:06:40.393Z,64.94
2022-09-23T08:07:40.399Z,64.53
2022-09-23T08:08:40.423Z,64.61
2022-09-23T08:09:40.432Z,64.81
2022-09-23T08:10:40.358Z,64.50
2022-09-23T08:11:40.406Z,63.08
2022-09-23T08:12:40.334Z,63.86
2022-09-23T08:13:40.356Z,64.67
2022-09-23T08:14:40.336Z,63.73
2022-09-23T08:15:40.434Z,64.54
2022-09-23T08:16:40.290Z,63.93
2022-09-23T08:17:40.303Z,63.73
2022-09-23T08:18:40.281Z,64.72
2022-09-23T08:19:40.278Z,60.69
2022-09-23T08:20:43.659Z,60.89
2022-09-23T08:21:40.261Z,61.91
2022-09-23T08:22:40.251Z,61.80
2022-09-23T08:23:40.225Z,65.66
2022-09-23T08:24:40.219Z,62.49
2022-09-23T08:25:40.365Z,61.98
2022-09-23T08:26:40.204Z,64.72
2022-09-23T08:27:40.202Z,62.18
2022-09-23T08:28:40.208Z,62.59
2022-09-23T08:29:40.178Z,62.89
2022-09-23T08:30:40.241Z,62.46
2022-09-23T08:31:40.145Z,63.57
2022-09-23T08:32:40.165Z,60.66
2022-09-23T08:33:40.131Z,60.66
2022-09-23T08:34:40.113Z,62.38
2022-09-23T08:35:40.139Z,61.78
2022-09-23T08:36:40.114Z,63.60
2022-09-23T08:37:40.092Z,62.49
2022-09-23T08:38:40.068Z,62.49
2022-09-23T08:39:40.074Z,61.51
2022-09-23T08:40:40.078Z,61.60
2022-09-23T08:41:40.051Z,63.12
2022-09-23T08:42:40.064Z,63.53
2022-09-23T08:43:40.012Z,64.14
2022-09-23T08:44:40.017Z,62.49
2022-09-23T08:45:40.012Z,61.80
2022-09-23T08:46:40.011Z,62.41
2022-09-23T08:47:40.411Z,63.02
2022-09-23T08:48:40.048Z,60.49
2022-09-23T08:49:39.978Z,60.89
2022-09-23T08:50:40.029Z,62.01
2022-09-23T08:51:39.982Z,61.20
2022-09-23T08:52:39.967Z,62.52
2022-09-23T08:53:39.978Z,62.62
2022-09-23T08:54:39.904Z,63.63
2022-09-23T08:55:39.897Z,62.52
2022-09-23T08:56:39.946Z,62.82
2022-09-23T08:57:39.886Z,63.73
2022-09-23T08:58:39.859Z,62.21
2022-09-23T08:59:39.851Z,61.80
2022-09-23T09:00:39.842Z,63.40
2022-09-23T09:01:39.871Z,64.21
2022-09-23T09:02:39.938Z,63.50
2022-09-23T09:03:39.818Z,61.88
2022-09-23T09:04:39.788Z,62.66
2022-09-23T09:05:39.810Z,62.56
2022-09-23T09:06:52.446Z,62.86
2022-09-23T09:07:39.842Z,61.44
2022-09-23T09:08:39.754Z,60.94
2022-09-23T09:09:39.752Z,61.44
2022-09-23T09:10:39.746Z,60.94
2022-09-23T09:11:39.728Z,60.03
2022-09-23T09:12:39.708Z,60.36
2022-09-23T09:13:39.738Z,59.92
2022-09-23T09:14:39.685Z,60.94
2022-09-23T09:15:39.740Z,59.12
2022-09-23T09:16:58.829Z,59.65
2022-09-23T09:17:39.660Z,61.14
2022-09-23T09:18:39.681Z,60.03
2022-09-23T09:19:39.644Z,59.72
2022-09-23T09:20:39.620Z,60.53
2022-09-23T09:21:39.652Z,60.13
2022-09-23T09:22:39.605Z,61.32
2022-09-23T09:23:39.606Z,61.32
2022-09-23T09:24:39.580Z,60.30
2022-09-23T09:25:39.591Z,60.68
2022-09-23T09:26:39.579Z,59.67
2022-09-23T09:27:39.555Z,59.74
2022-09-23T09:28:39.707Z,60.75
2022-09-23T09:29:39.725Z,59.74
2022-09-23T09:30:39.574Z,59.34
2022-09-23T09:31:39.580Z,60.65
2022-09-23T09:32:39.521Z,58.83
2022-09-23T09:33:39.527Z,59.11
2022-09-23T09:34:39.499Z,60.72
2022-09-23T09:35:39.623Z,58.78
2022-09-23T09:36:39.473Z,58.67
2022-09-23T09:37:39.499Z,56.85
2022-09-23T09:38:39.456Z,54.46
2022-09-23T09:39:39.430Z,54.66
2022-09-23T09:40:39.548Z,58.09
2022-09-23T09:41:39.441Z,55.67
2022-09-23T09:42:39.391Z,56.38
2022-09-23T09:43:43.449Z,57.46
2022-09-23T09:44:39.365Z,55.54
2022-09-23T09:45:39.381Z,54.53
2022-09-23T09:46:39.390Z,56.45
2022-09-23T09:47:39.352Z,55.24
2022-09-23T09:48:39.358Z,56.98
2022-09-23T09:49:40.686Z,55.87
2022-09-23T09:50:39.311Z,56.48
2022-09-23T09:51:39.300Z,55.90
2022-09-23T09:52:42.896Z,56.48
2022-09-23T09:53:39.241Z,56.78
2022-09-23T09:54:39.209Z,56.81
2022-09-23T09:55:39.283Z,56.40
2022-09-23T09:56:39.212Z,56.61
2022-09-23T09:57:39.250Z,56.00
2022-09-23T09:58:39.177Z,59.03
2022-09-23T09:59:39.169Z,57.69
2022-09-23T10:00:39.159Z,56.85
2022-09-23T10:01:39.214Z,56.25
2022-09-23T10:02:39.117Z,54.66
2022-09-23T10:03:39.121Z,55.67
2022-09-23T10:04:39.174Z,56.56
2022-09-23T10:05:39.108Z,56.52
2022-09-23T10:06:39.074Z,56.60
2022-09-23T10:07:39.117Z,56.20
2022-09-23T10:08:39.079Z,56.98
2022-09-23T10:09:39.051Z,54.66
2022-09-23T10:10:39.047Z,54.86
2022-09-23T10:11:39.025Z,52.64
2022-09-23T10:12:39.024Z,52.04
2022-09-23T10:13:39.026Z,54.66
2022-09-23T10:14:39.068Z,53.14
2022-09-23T10:15:43.814Z,53.34
2022-09-23T10:16:39.032Z,52.94
2022-09-23T10:17:38.973Z,53.65
2022-09-23T10:18:38.978Z,55.06
2022-09-23T10:19:38.978Z,56.37
2022-09-23T10:20:44.958Z,53.05
2022-09-23T10:21:38.924Z,53.65
2022-09-23T10:22:38.915Z,53.75
2022-09-23T10:23:38.898Z,52.64
2022-09-23T10:24:38.906Z,53.45
2022-09-23T10:25:38.911Z,55.87
2022-09-23T10:26:38.866Z,54.16
2022-09-23T10:27:38.873Z,55.14
2022-09-23T10:28:38.849Z,53.55
2022-09-23T10:29:38.891Z,54.66
2022-09-23T10:30:38.848Z,54.53
2022-09-23T10:31:38.822Z,56.24
2022-09-23T10:32:38.809Z,54.23
2022-09-23T10:33:38.806Z,55.11
2022-09-23T10:34:40.171Z,56.12
2022-09-23T10:35:38.788Z,53.60
2022-09-23T10:36:43.758Z,55.39
2022-09-23T10:37:38.765Z,53.40
2022-09-23T10:38:38.756Z,54.50
2022-09-23T10:39:38.749Z,56.35
2022-09-23T10:40:38.961Z,54.13
2022-09-23T10:41:38.724Z,54.13
2022-09-23T10:42:38.706Z,54.46
2022-09-23T10:43:38.721Z,56.07
2022-09-23T10:44:38.689Z,56.07
2022-09-23T10:45:41.180Z,57.18
2022-09-23T10:46:38.777Z,56.24
2022-09-23T10:47:38.669Z,55.34
2022-09-23T10:48:38.650Z,55.41
2022-09-23T10:49:38.641Z,56.02
2022-09-23T10:50:38.660Z,54.91
2022-09-23T10:51:38.627Z,55.24
2022-09-23T10:52:38.607Z,55.24
2022-09-23T10:53:38.621Z,54.81
2022-09-23T10:54:38.733Z,56.52
2022-09-23T10:55:38.592Z,55.41
2022-09-23T10:56:38.591Z,52.89
2022-09-23T10:57:38.571Z,54.00
2022-09-23T10:58:38.547Z,54.99
2022-09-23T10:59:38.557Z,56.49
2022-09-23T11:00:38.559Z,54.35
2022-09-23T11:01:38.583Z,52.04
2022-09-23T11:02:38.507Z,54.25
2022-09-23T11:03:38.526Z,54.18
2022-09-23T11:04:38.531Z,52.47
2022-09-23T11:05:38.538Z,53.38
2022-09-23T11:06:38.502Z,52.26
2022-09-23T11:07:38.459Z,52.74
2022-09-23T11:08:38.448Z,53.14
2022-09-23T11:09:38.461Z,53.34
2022-09-23T11:10:46.520Z,54.15
2022-09-23T11:11:38.439Z,52.54
2022-09-23T11:12:38.474Z,53.55
2022-09-23T11:13:38.394Z,52.34
2022-09-23T11:14:38.400Z,53.72
2022-09-23T11:15:39.475Z,51.11
2022-09-23T11:16:38.462Z,52.80
2022-09-23T11:17:38.407Z,51.18
2022-09-23T11:18:38.367Z,52.64
2022-09-23T11:19:42.178Z,50.71
2022-09-23T11:20:38.344Z,50.01
2022-09-23T11:21:38.406Z,50.09
2022-09-23T11:22:38.332Z,52.26
2022-09-23T11:23:38.312Z,50.13
2022-09-23T11:24:38.304Z,48.93
2022-09-23T11:25:38.284Z,49.23
2022-09-23T11:26:38.296Z,47.23
2022-09-23T11:27:38.249Z,48.53
2022-09-23T11:28:38.300Z,47.73
2022-09-23T11:29:38.239Z,48.46
2022-09-23T11:30:38.311Z,48.66
2022-09-23T11:31:38.215Z,48.88
2022-09-23T11:32:38.216Z,50.89
2022-09-23T11:33:38.227Z,50.41
2022-09-23T11:34:38.242Z,51.79
2022-09-23T11:35:38.170Z,51.49
2022-09-23T11:36:38.176Z,50.61
2022-09-23T11:37:38.152Z,52.72
2022-09-23T11:38:38.196Z,50.51
2022-09-23T11:39:38.256Z,50.63
2022-09-23T11:40:41.079Z,51.36
2022-09-23T11:41:38.160Z,53.57
2022-09-23T11:42:38.116Z,51.89
2022-09-23T11:43:38.083Z,53.09
2022-09-23T11:44:38.089Z,52.29
2022-09-23T11:45:38.120Z,51.59
2022-09-23T11:46:38.074Z,51.99
2022-09-23T11:47:39.934Z,51.29
2022-09-23T11:48:38.044Z,51.51
2022-09-23T11:49:38.038Z,52.29
2022-09-23T11:50:38.035Z,52.69
2022-09-23T11:51:38.013Z,51.09
2022-09-23T11:52:38.025Z,53.20
2022-09-23T11:53:38.008Z,50.96
2022-09-23T11:54:37.993Z,51.14
2022-09-23T11:55:39.515Z,49.83
2022-09-23T11:56:40.980Z,49.13
2022-09-23T11:57:47.050Z,49.43
2022-09-23T11:58:37.977Z,49.73
2022-09-23T11:59:40.970Z,48.52
2022-09-23T12:00:38.051Z,50.26
2022-09-23T12:01:39.057Z,51.46
2022-09-23T12:02:38.049Z,50.66
2022-09-23T12:03:43.879Z,49.53
2022-09-23T12:04:45.167Z,50.13
2022-09-23T12:05:38.080Z,48.55
2022-09-23T12:06:37.885Z,48.35
2022-09-23T12:07:37.850Z,48.85
2022-09-23T12:08:37.868Z,50.96
2022-09-23T12:10:00.156Z,48.93
2022-09-23T12:10:37.833Z,50.43
2022-09-23T12:11:37.808Z,49.63
2022-09-23T12:12:37.803Z,50.03
2022-09-23T12:13:37.786Z,49.73
2022-09-23T12:14:37.802Z,51.34
2022-09-23T12:15:37.771Z,50.84
2022-09-23T12:16:37.794Z,48.43
2022-09-23T12:17:37.781Z,48.44
2022-09-23T12:18:37.758Z,51.36
2022-09-23T12:19:37.740Z,48.14
2022-09-23T12:20:37.716Z,48.14
2022-09-23T12:21:53.068Z,49.65
2022-09-23T12:22:37.717Z,50.46
2022-09-23T12:23:37.698Z,51.16
2022-09-23T12:24:37.713Z,51.97
2022-09-23T12:25:37.674Z,53.97
2022-09-23T12:26:37.670Z,49.85
2022-09-23T12:27:37.651Z,49.25
2022-09-23T12:28:37.661Z,49.07
2022-09-23T12:29:37.639Z,49.07
2022-09-23T12:30:37.869Z,50.58
2022-09-23T12:31:41.143Z,49.19
2022-09-23T12:32:37.607Z,52.82
2022-09-23T12:33:37.587Z,50.51
2022-09-23T12:34:37.609Z,49.30
2022-09-23T12:35:37.559Z,49.90
2022-09-23T12:36:37.608Z,49.90
2022-09-23T12:37:37.561Z,48.99
2022-09-23T12:38:37.616Z,49.70
2022-09-23T12:39:37.529Z,51.61
2022-09-23T12:40:37.611Z,52.31
2022-09-23T12:41:37.552Z,50.28
2022-09-23T12:42:37.529Z,50.98
2022-09-23T12:43:37.483Z,50.48
2022-09-23T12:44:37.493Z,49.37
2022-09-23T12:45:37.602Z,51.29
2022-09-23T12:46:37.465Z,52.09
2022-09-23T12:47:37.443Z,51.49
2022-09-23T12:48:37.458Z,50.18
2022-09-23T12:49:37.436Z,51.31
2022-09-23T12:50:37.424Z,51.21
2022-09-23T12:51:37.408Z,52.82
2022-09-23T12:52:37.406Z,51.49
2022-09-23T12:53:37.400Z,51.91